sensor_id;sensor_type;location;lat;lon;timestamp;temperature;humidity
9385;DHT22;4732;49.340;10.886;2024-03-25T07:19:36;5.50;99.90
9385;DHT22;4732;49.340;10.886;2024-03-25T07:22:02;5.40;99.90
9385;DHT22;4732;49.340;10.886;2024-03-25T07:52:52;6.40;99.90
9385;DHT22;4732;49.340;10.886;2024-03-25T07:55:18;6.40;99.90
9385;DHT22;4732;49.340;10.886;2024-03-25T07:57:44;6.50;99.90
9385;DHT22;4732;49.340;10.886;2024-03-25T08:00:11;6.60;99.90
9385;DHT22;4732;49.340;10.886;2024-03-25T08:02:37;6.80;99.90
9385;DHT22;4732;49.340;10.886;2024-03-25T08:05:04;6.70;99.90
9385;DHT22;4732;49.340;10.886;2024-03-25T08:07:31;6.50;99.90
9385;DHT22;4732;49.340;10.886;2024-03-25T08:09:57;6.80;99.90
9385;DHT22;4732;49.340;10.886;2024-03-25T08:12:23;6.30;99.90
9385;DHT22;4732;49.340;10.886;2024-03-25T08:14:49;6.20;99.90
9385;DHT22;4732;49.340;10.886;2024-03-25T08:17:15;6.00;99.90
9385;DHT22;4732;49.340;10.886;2024-03-25T08:19:41;5.90;99.90
9385;DHT22;4732;49.340;10.886;2024-03-25T08:22:07;5.80;99.90
9385;DHT22;4732;49.340;10.886;2024-03-25T08:24:33;5.90;99.90
9385;DHT22;4732;49.340;10.886;2024-03-25T08:27:00;5.90;99.90
9385;DHT22;4732;49.340;10.886;2024-03-25T08:29:26;6.10;99.90
9385;DHT22;4732;49.340;10.886;2024-03-25T08:31:52;6.30;99.90
9385;DHT22;4732;49.340;10.886;2024-03-25T08:34:19;6.30;99.90
9385;DHT22;4732;49.340;10.886;2024-03-25T08:36:45;6.50;99.90
9385;DHT22;4732;49.340;10.886;2024-03-25T08:39:12;6.50;99.90
9385;DHT22;4732;49.340;10.886;2024-03-25T08:41:39;6.50;99.90
9385;DHT22;4732;49.340;10.886;2024-03-25T08:44:05;6.60;99.90
9385;DHT22;4732;49.340;10.886;2024-03-25T08:46:32;6.40;99.90
9385;DHT22;4732;49.340;10.886;2024-03-25T08:49:05;6.30;99.90
9385;DHT22;4732;49.340;10.886;2024-03-25T08:52:01;6.20;99.90
9385;DHT22;4732;49.340;10.886;2024-03-25T08:54:30;6.40;99.90
9385;DHT22;4732;49.340;10.886;2024-03-25T08:56:56;6.90;99.90
9385;DHT22;4732;49.340;10.886;2024-03-25T09:01:51;7.80;99.90
9385;DHT22;4732;49.340;10.886;2024-03-25T09:04:17;7.80;99.90
9385;DHT22;4732;49.340;10.886;2024-03-25T09:06:44;7.80;99.90
9385;DHT22;4732;49.340;10.886;2024-03-25T09:09:10;7.60;99.90
9385;DHT22;4732;49.340;10.886;2024-03-25T09:11:58;7.40;99.90
9385;DHT22;4732;49.340;10.886;2024-03-25T09:14:25;7.20;99.90
9385;DHT22;4732;49.340;10.886;2024-03-25T09:16:56;7.00;99.90
9385;DHT22;4732;49.340;10.886;2024-03-25T09:21:49;6.90;99.90
9385;DHT22;4732;49.340;10.886;2024-03-25T09:29:12;7.00;99.90
9385;DHT22;4732;49.340;10.886;2024-03-25T09:31:38;7.10;99.90
9385;DHT22;4732;49.340;10.886;2024-03-25T09:34:14;7.30;99.90
9385;DHT22;4732;49.340;10.886;2024-03-25T09:39:06;7.90;99.90
9385;DHT22;4732;49.340;10.886;2024-03-25T09:41:36;8.30;99.90
9385;DHT22;4732;49.340;10.886;2024-03-25T09:44:03;8.40;99.90
9385;DHT22;4732;49.340;10.886;2024-03-25T09:46:34;8.70;99.90
9385;DHT22;4732;49.340;10.886;2024-03-25T09:49:01;8.80;99.90
9385;DHT22;4732;49.340;10.886;2024-03-25T09:54:57;8.50;99.90
9385;DHT22;4732;49.340;10.886;2024-03-25T09:57:25;8.00;99.90
9385;DHT22;4732;49.340;10.886;2024-03-25T09:59:56;7.70;99.90
9385;DHT22;4732;49.340;10.886;2024-03-25T10:02:24;7.70;99.90
9385;DHT22;4732;49.340;10.886;2024-03-25T10:04:52;8.10;99.90
9385;DHT22;4732;49.340;10.886;2024-03-25T10:07:24;8.50;99.90
9385;DHT22;4732;49.340;10.886;2024-03-25T10:09:53;8.50;99.90
9385;DHT22;4732;49.340;10.886;2024-03-25T10:15:05;8.80;99.90
9385;DHT22;4732;49.340;10.886;2024-03-25T10:17:31;8.80;99.90
9385;DHT22;4732;49.340;10.886;2024-03-25T10:19:57;9.00;99.90
9385;DHT22;4732;49.340;10.886;2024-03-25T10:22:22;9.30;99.90
9385;DHT22;4732;49.340;10.886;2024-03-25T10:24:50;9.30;99.90
9385;DHT22;4732;49.340;10.886;2024-03-25T10:27:23;9.40;99.90
9385;DHT22;4732;49.340;10.886;2024-03-25T10:29:52;9.60;99.90
9385;DHT22;4732;49.340;10.886;2024-03-25T10:32:18;9.70;99.90
9385;DHT22;4732;49.340;10.886;2024-03-25T10:34:44;10.10;99.90
9385;DHT22;4732;49.340;10.886;2024-03-25T10:37:10;10.20;99.90
9385;DHT22;4732;49.340;10.886;2024-03-25T10:39:49;10.40;99.90
9385;DHT22;4732;49.340;10.886;2024-03-25T10:42:19;10.30;99.90
9385;DHT22;4732;49.340;10.886;2024-03-25T10:44:54;10.50;99.90
9385;DHT22;4732;49.340;10.886;2024-03-25T10:47:24;10.20;99.90
9385;DHT22;4732;49.340;10.886;2024-03-25T10:49:59;10.10;99.90
9385;DHT22;4732;49.340;10.886;2024-03-25T10:52:30;10.20;99.90
9385;DHT22;4732;49.340;10.886;2024-03-25T10:54:58;10.70;99.90
9385;DHT22;4732;49.340;10.886;2024-03-25T10:57:24;10.50;99.90
9385;DHT22;4732;49.340;10.886;2024-03-25T10:59:51;10.60;99.90
9385;DHT22;4732;49.340;10.886;2024-03-25T11:02:17;10.70;99.90
9385;DHT22;4732;49.340;10.886;2024-03-25T11:04:44;10.70;99.90
9385;DHT22;4732;49.340;10.886;2024-03-25T11:07:11;10.40;99.90
9385;DHT22;4732;49.340;10.886;2024-03-25T11:09:41;10.40;99.90
9385;DHT22;4732;49.340;10.886;2024-03-25T11:12:10;10.40;99.90
9385;DHT22;4732;49.340;10.886;2024-03-25T11:14:35;10.60;99.90
9385;DHT22;4732;49.340;10.886;2024-03-25T11:17:01;10.90;99.90
9385;DHT22;4732;49.340;10.886;2024-03-25T11:19:28;11.20;99.90
9385;DHT22;4732;49.340;10.886;2024-03-25T11:22:05;11.00;99.90
9385;DHT22;4732;49.340;10.886;2024-03-25T11:24:31;10.30;99.90
9385;DHT22;4732;49.340;10.886;2024-03-25T11:26:57;10.30;99.90
9385;DHT22;4732;49.340;10.886;2024-03-25T11:29:22;10.70;99.90
9385;DHT22;4732;49.340;10.886;2024-03-25T11:31:52;10.80;99.90
9385;DHT22;4732;49.340;10.886;2024-03-25T11:34:18;11.00;99.90
9385;DHT22;4732;49.340;10.886;2024-03-25T11:36:44;11.10;99.90
9385;DHT22;4732;49.340;10.886;2024-03-25T11:39:10;11.30;99.90
9385;DHT22;4732;49.340;10.886;2024-03-25T11:41:42;11.60;99.90
9385;DHT22;4732;49.340;10.886;2024-03-25T11:44:08;11.50;99.90
9385;DHT22;4732;49.340;10.886;2024-03-25T11:46:36;11.60;99.90
9385;DHT22;4732;49.340;10.886;2024-03-25T11:49:21;11.50;99.90
9385;DHT22;4732;49.340;10.886;2024-03-25T11:51:46;11.30;99.90
9385;DHT22;4732;49.340;10.886;2024-03-25T11:54:12;11.60;99.90
9385;DHT22;4732;49.340;10.886;2024-03-25T11:56:38;11.60;99.90
9385;DHT22;4732;49.340;10.886;2024-03-25T11:59:04;11.30;99.00
9385;DHT22;4732;49.340;10.886;2024-03-25T12:01:30;11.40;99.90
9385;DHT22;4732;49.340;10.886;2024-03-25T12:03:56;11.50;99.90
9385;DHT22;4732;49.340;10.886;2024-03-25T12:06:21;11.60;99.90
9385;DHT22;4732;49.340;10.886;2024-03-25T12:08:47;11.90;99.90
9385;DHT22;4732;49.340;10.886;2024-03-25T12:11:36;12.20;99.90
9385;DHT22;4732;49.340;10.886;2024-03-25T12:14:02;11.90;98.10
9385;DHT22;4732;49.340;10.886;2024-03-25T12:16:28;11.80;98.90
9385;DHT22;4732;49.340;10.886;2024-03-25T12:18:53;11.30;99.00
9385;DHT22;4732;49.340;10.886;2024-03-25T12:21:19;11.50;99.90
9385;DHT22;4732;49.340;10.886;2024-03-25T12:23:45;11.90;99.90
9385;DHT22;4732;49.340;10.886;2024-03-25T12:26:12;12.20;99.90
9385;DHT22;4732;49.340;10.886;2024-03-25T12:28:39;12.10;99.90
9385;DHT22;4732;49.340;10.886;2024-03-25T12:31:08;12.10;99.90
9385;DHT22;4732;49.340;10.886;2024-03-25T12:33:43;12.40;99.60
9385;DHT22;4732;49.340;10.886;2024-03-25T12:36:11;12.80;98.90
9385;DHT22;4732;49.340;10.886;2024-03-25T12:38:36;13.10;99.30
9385;DHT22;4732;49.340;10.886;2024-03-25T12:41:07;13.00;97.70
9385;DHT22;4732;49.340;10.886;2024-03-25T12:43:42;12.30;98.00
9385;DHT22;4732;49.340;10.886;2024-03-25T12:46:08;12.00;99.40
9385;DHT22;4732;49.340;10.886;2024-03-25T12:48:39;12.40;99.80
9385;DHT22;4732;49.340;10.886;2024-03-25T12:51:15;12.90;99.90
9385;DHT22;4732;49.340;10.886;2024-03-25T12:53:41;13.40;97.40
9385;DHT22;4732;49.340;10.886;2024-03-25T12:56:07;13.60;98.00
9385;DHT22;4732;49.340;10.886;2024-03-25T12:58:33;13.60;97.10
9385;DHT22;4732;49.340;10.886;2024-03-25T13:00:59;13.30;97.80
9385;DHT22;4732;49.340;10.886;2024-03-25T13:03:24;13.30;97.30
9385;DHT22;4732;49.340;10.886;2024-03-25T13:05:50;13.40;98.50
9385;DHT22;4732;49.340;10.886;2024-03-25T13:08:15;13.70;97.70
9385;DHT22;4732;49.340;10.886;2024-03-25T13:10:42;14.10;97.40
9385;DHT22;4732;49.340;10.886;2024-03-25T13:13:08;14.20;96.40
9385;DHT22;4732;49.340;10.886;2024-03-25T13:15:34;13.90;95.50
9385;DHT22;4732;49.340;10.886;2024-03-25T13:18:00;13.70;96.70
9385;DHT22;4732;49.340;10.886;2024-03-25T13:20:25;13.50;96.70
9385;DHT22;4732;49.340;10.886;2024-03-25T13:22:55;13.20;95.60
9385;DHT22;4732;49.340;10.886;2024-03-25T13:25:28;12.70;94.40
9385;DHT22;4732;49.340;10.886;2024-03-25T13:27:53;12.80;96.60
9385;DHT22;4732;49.340;10.886;2024-03-25T13:30:19;13.20;97.10
9385;DHT22;4732;49.340;10.886;2024-03-25T13:32:44;13.40;98.10
9385;DHT22;4732;49.340;10.886;2024-03-25T13:35:10;13.60;97.00
9385;DHT22;4732;49.340;10.886;2024-03-25T13:37:35;13.80;96.50
9385;DHT22;4732;49.340;10.886;2024-03-25T13:40:01;13.90;95.90
9385;DHT22;4732;49.340;10.886;2024-03-25T13:42:26;14.10;95.90
9385;DHT22;4732;49.340;10.886;2024-03-25T13:44:52;14.00;96.00
9385;DHT22;4732;49.340;10.886;2024-03-25T13:47:17;14.00;95.70
9385;DHT22;4732;49.340;10.886;2024-03-25T13:49:43;13.90;93.10
9385;DHT22;4732;49.340;10.886;2024-03-25T13:52:08;14.10;94.20
9385;DHT22;4732;49.340;10.886;2024-03-25T13:54:34;14.30;94.80
9385;DHT22;4732;49.340;10.886;2024-03-25T13:56:59;14.50;94.10
9385;DHT22;4732;49.340;10.886;2024-03-25T13:59:25;14.60;92.70
9385;DHT22;4732;49.340;10.886;2024-03-25T14:01:51;14.50;93.80
9385;DHT22;4732;49.340;10.886;2024-03-25T14:04:17;14.30;93.10
9385;DHT22;4732;49.340;10.886;2024-03-25T14:06:43;14.10;94.30
9385;DHT22;4732;49.340;10.886;2024-03-25T14:09:22;14.10;92.30
9385;DHT22;4732;49.340;10.886;2024-03-25T14:11:48;14.10;93.00
9385;DHT22;4732;49.340;10.886;2024-03-25T14:14:13;14.10;94.10
9385;DHT22;4732;49.340;10.886;2024-03-25T14:16:39;14.30;93.10
9385;DHT22;4732;49.340;10.886;2024-03-25T14:19:04;14.50;93.60
9385;DHT22;4732;49.340;10.886;2024-03-25T14:21:30;14.60;92.30
9385;DHT22;4732;49.340;10.886;2024-03-25T14:23:55;14.70;93.90
9385;DHT22;4732;49.340;10.886;2024-03-25T14:26:21;14.90;90.70
9385;DHT22;4732;49.340;10.886;2024-03-25T14:28:46;15.00;92.30
9385;DHT22;4732;49.340;10.886;2024-03-25T14:31:12;14.80;92.20
9385;DHT22;4732;49.340;10.886;2024-03-25T14:33:37;14.40;90.30
9385;DHT22;4732;49.340;10.886;2024-03-25T14:36:03;13.80;90.90
9385;DHT22;4732;49.340;10.886;2024-03-25T14:38:29;13.40;91.20
9385;DHT22;4732;49.340;10.886;2024-03-25T14:40:54;13.00;91.80
9385;DHT22;4732;49.340;10.886;2024-03-25T14:43:20;12.80;93.60
9385;DHT22;4732;49.340;10.886;2024-03-25T14:45:46;13.10;93.30
9385;DHT22;4732;49.340;10.886;2024-03-25T14:48:12;13.30;93.80
9385;DHT22;4732;49.340;10.886;2024-03-25T14:50:37;13.10;91.70
9385;DHT22;4732;49.340;10.886;2024-03-25T14:53:03;12.90;93.00
9385;DHT22;4732;49.340;10.886;2024-03-25T14:55:29;12.60;93.80
9385;DHT22;4732;49.340;10.886;2024-03-25T14:57:55;12.30;93.80
9385;DHT22;4732;49.340;10.886;2024-03-25T15:00:21;12.30;94.50
9385;DHT22;4732;49.340;10.886;2024-03-25T15:02:49;12.10;94.40
9385;DHT22;4732;49.340;10.886;2024-03-25T15:05:15;11.90;95.00
9385;DHT22;4732;49.340;10.886;2024-03-25T15:07:40;11.90;95.30
9385;DHT22;4732;49.340;10.886;2024-03-25T15:10:06;12.50;94.30
9385;DHT22;4732;49.340;10.886;2024-03-25T15:12:32;12.90;93.50
9385;DHT22;4732;49.340;10.886;2024-03-25T15:14:57;12.80;95.10
9385;DHT22;4732;49.340;10.886;2024-03-25T15:17:23;12.60;93.40
9385;DHT22;4732;49.340;10.886;2024-03-25T15:19:48;12.70;93.50
9385;DHT22;4732;49.340;10.886;2024-03-25T15:22:14;13.30;92.90
9385;DHT22;4732;49.340;10.886;2024-03-25T15:24:39;13.60;92.70
9385;DHT22;4732;49.340;10.886;2024-03-25T15:27:05;13.90;92.00
9385;DHT22;4732;49.340;10.886;2024-03-25T15:29:30;14.40;92.60
9385;DHT22;4732;49.340;10.886;2024-03-25T15:31:56;14.70;92.00
9385;DHT22;4732;49.340;10.886;2024-03-25T15:34:21;14.90;90.90
9385;DHT22;4732;49.340;10.886;2024-03-25T15:36:47;15.00;91.10
9385;DHT22;4732;49.340;10.886;2024-03-25T15:39:14;15.30;90.30
9385;DHT22;4732;49.340;10.886;2024-03-25T15:41:40;15.20;89.50
9385;DHT22;4732;49.340;10.886;2024-03-25T15:44:06;15.30;92.10
9385;DHT22;4732;49.340;10.886;2024-03-25T15:46:32;15.20;90.90
9385;DHT22;4732;49.340;10.886;2024-03-25T15:48:57;15.20;90.80
9385;DHT22;4732;49.340;10.886;2024-03-25T15:51:23;15.20;92.50
9385;DHT22;4732;49.340;10.886;2024-03-25T15:53:48;15.50;90.60
9385;DHT22;4732;49.340;10.886;2024-03-25T15:56:14;15.30;90.10
9385;DHT22;4732;49.340;10.886;2024-03-25T15:58:39;15.30;89.80
9385;DHT22;4732;49.340;10.886;2024-03-25T16:01:05;15.30;90.70
9385;DHT22;4732;49.340;10.886;2024-03-25T16:03:30;15.20;90.40
9385;DHT22;4732;49.340;10.886;2024-03-25T16:05:56;15.10;88.20
9385;DHT22;4732;49.340;10.886;2024-03-25T16:08:21;15.10;89.60
9385;DHT22;4732;49.340;10.886;2024-03-25T16:10:47;15.00;87.60
9385;DHT22;4732;49.340;10.886;2024-03-25T16:13:12;15.20;89.20
9385;DHT22;4732;49.340;10.886;2024-03-25T16:15:38;15.20;88.80
9385;DHT22;4732;49.340;10.886;2024-03-25T16:18:03;15.40;90.30
9385;DHT22;4732;49.340;10.886;2024-03-25T16:20:34;15.50;89.20
9385;DHT22;4732;49.340;10.886;2024-03-25T16:22:59;15.60;89.00
9385;DHT22;4732;49.340;10.886;2024-03-25T16:25:26;15.60;87.70
9385;DHT22;4732;49.340;10.886;2024-03-25T16:27:52;15.40;87.00
9385;DHT22;4732;49.340;10.886;2024-03-25T16:30:18;15.20;88.50
9385;DHT22;4732;49.340;10.886;2024-03-25T16:32:44;15.30;87.90
9385;DHT22;4732;49.340;10.886;2024-03-25T16:35:09;15.30;87.50
9385;DHT22;4732;49.340;10.886;2024-03-25T16:37:35;15.20;87.50
9385;DHT22;4732;49.340;10.886;2024-03-25T16:40:00;15.10;87.70
9385;DHT22;4732;49.340;10.886;2024-03-25T16:42:26;14.80;90.10
9385;DHT22;4732;49.340;10.886;2024-03-25T16:44:51;14.90;90.00
9385;DHT22;4732;49.340;10.886;2024-03-25T16:47:17;14.80;90.10
9385;DHT22;4732;49.340;10.886;2024-03-25T16:49:43;14.70;91.10
9385;DHT22;4732;49.340;10.886;2024-03-25T16:52:08;14.50;90.30
9385;DHT22;4732;49.340;10.886;2024-03-25T16:54:34;14.20;91.10
9385;DHT22;4732;49.340;10.886;2024-03-25T16:56:59;13.80;91.10
9385;DHT22;4732;49.340;10.886;2024-03-25T16:59:25;13.30;91.30
9385;DHT22;4732;49.340;10.886;2024-03-25T17:01:51;12.70;92.60
9385;DHT22;4732;49.340;10.886;2024-03-25T17:04:17;12.30;93.10
9385;DHT22;4732;49.340;10.886;2024-03-25T17:06:43;12.00;93.60
9385;DHT22;4732;49.340;10.886;2024-03-25T17:09:08;11.70;93.80
9385;DHT22;4732;49.340;10.886;2024-03-25T17:11:37;11.60;94.20
9385;DHT22;4732;49.340;10.886;2024-03-25T17:14:04;11.30;94.30
9385;DHT22;4732;49.340;10.886;2024-03-25T17:16:31;11.20;94.80
9385;DHT22;4732;49.340;10.886;2024-03-25T17:18:57;11.20;94.70
9385;DHT22;4732;49.340;10.886;2024-03-25T17:21:22;11.10;95.00
9385;DHT22;4732;49.340;10.886;2024-03-25T17:23:48;11.20;94.90
9385;DHT22;4732;49.340;10.886;2024-03-25T17:26:14;11.30;95.60
9385;DHT22;4732;49.340;10.886;2024-03-25T17:28:40;11.10;95.70
9385;DHT22;4732;49.340;10.886;2024-03-25T17:31:09;10.90;96.10
9385;DHT22;4732;49.340;10.886;2024-03-25T17:33:42;10.70;95.80
9385;DHT22;4732;49.340;10.886;2024-03-25T17:36:08;10.40;96.80
9385;DHT22;4732;49.340;10.886;2024-03-25T17:38:34;10.10;98.40
9385;DHT22;4732;49.340;10.886;2024-03-25T17:41:00;9.90;99.60
9385;DHT22;4732;49.340;10.886;2024-03-25T17:43:26;9.60;99.90
9385;DHT22;4732;49.340;10.886;2024-03-25T17:45:52;9.30;99.90
9385;DHT22;4732;49.340;10.886;2024-03-25T17:48:19;9.20;99.90
9385;DHT22;4732;49.340;10.886;2024-03-25T17:50:44;9.00;99.90
9385;DHT22;4732;49.340;10.886;2024-03-25T17:53:10;8.80;99.90
9385;DHT22;4732;49.340;10.886;2024-03-25T17:55:35;8.70;99.90
9385;DHT22;4732;49.340;10.886;2024-03-25T17:58:01;8.50;99.90
9385;DHT22;4732;49.340;10.886;2024-03-25T18:00:28;8.40;99.90
9385;DHT22;4732;49.340;10.886;2024-03-25T18:02:53;8.30;99.90
9385;DHT22;4732;49.340;10.886;2024-03-25T18:05:19;8.10;99.90
9385;DHT22;4732;49.340;10.886;2024-03-25T18:07:45;8.10;99.90
9385;DHT22;4732;49.340;10.886;2024-03-25T18:10:15;7.90;99.90
9385;DHT22;4732;49.340;10.886;2024-03-25T18:12:41;7.70;99.90
9385;DHT22;4732;49.340;10.886;2024-03-25T18:15:07;7.40;99.90
9385;DHT22;4732;49.340;10.886;2024-03-25T18:17:33;7.20;99.90
9385;DHT22;4732;49.340;10.886;2024-03-25T18:19:58;7.00;99.90
9385;DHT22;4732;49.340;10.886;2024-03-25T18:22:24;6.90;99.90
9385;DHT22;4732;49.340;10.886;2024-03-25T18:24:49;6.70;99.90
9385;DHT22;4732;49.340;10.886;2024-03-25T18:27:15;6.60;99.90
9385;DHT22;4732;49.340;10.886;2024-03-25T18:29:40;6.50;99.90
9385;DHT22;4732;49.340;10.886;2024-03-25T18:32:06;6.40;99.90
9385;DHT22;4732;49.340;10.886;2024-03-25T18:34:32;6.30;99.90
9385;DHT22;4732;49.340;10.886;2024-03-25T18:36:57;6.10;99.90
9385;DHT22;4732;49.340;10.886;2024-03-25T18:39:23;6.00;99.90
9385;DHT22;4732;49.340;10.886;2024-03-25T18:41:49;5.90;99.90
9385;DHT22;4732;49.340;10.886;2024-03-25T18:44:14;5.90;99.90
9385;DHT22;4732;49.340;10.886;2024-03-25T18:46:40;5.90;99.90
9385;DHT22;4732;49.340;10.886;2024-03-25T18:49:06;5.80;99.90
9385;DHT22;4732;49.340;10.886;2024-03-25T18:51:31;2.20;99.90
9385;DHT22;4732;49.340;10.886;2024-03-25T18:53:57;5.70;99.90
9385;DHT22;4732;49.340;10.886;2024-03-25T18:56:23;5.70;99.90
9385;DHT22;4732;49.340;10.886;2024-03-25T18:58:49;5.60;99.90
9385;DHT22;4732;49.340;10.886;2024-03-25T19:01:14;5.50;99.90
9385;DHT22;4732;49.340;10.886;2024-03-25T19:03:43;5.50;99.90
9385;DHT22;4732;49.340;10.886;2024-03-25T19:06:09;5.50;99.90
9385;DHT22;4732;49.340;10.886;2024-03-25T19:08:41;5.20;99.90
9385;DHT22;4732;49.340;10.886;2024-03-25T19:11:10;5.00;99.90
9385;DHT22;4732;49.340;10.886;2024-03-25T19:13:36;4.80;99.90
9385;DHT22;4732;49.340;10.886;2024-03-25T19:16:02;4.70;99.90
9385;DHT22;4732;49.340;10.886;2024-03-25T19:19:03;4.80;99.90
9385;DHT22;4732;49.340;10.886;2024-03-25T19:21:29;4.70;99.90
9385;DHT22;4732;49.340;10.886;2024-03-25T19:23:58;4.70;99.90
9385;DHT22;4732;49.340;10.886;2024-03-25T19:30:00;4.40;99.90
9385;DHT22;4732;49.340;10.886;2024-03-25T19:32:46;4.40;99.90
9385;DHT22;4732;49.340;10.886;2024-03-25T19:39:12;4.40;99.90
9385;DHT22;4732;49.340;10.886;2024-03-25T19:42:13;4.00;99.90
9385;DHT22;4732;49.340;10.886;2024-03-25T19:44:53;4.50;99.90
9385;DHT22;4732;49.340;10.886;2024-03-25T19:47:48;4.50;99.90
9385;DHT22;4732;49.340;10.886;2024-03-25T19:53:51;4.40;99.90
9385;DHT22;4732;49.340;10.886;2024-03-25T20:03:53;4.10;99.90
9385;DHT22;4732;49.340;10.886;2024-03-25T20:06:34;4.20;99.90
9385;DHT22;4732;49.340;10.886;2024-03-25T20:09:19;4.20;99.90
